createdAt,value
2024-05-09T00:00:59.117Z,59.24
2024-05-09T00:04:03.752Z,60.83
2024-05-09T00:07:08.244Z,60.28
2024-05-09T00:10:22.099Z,61.25
2024-05-09T00:13:33.019Z,59.49
2024-05-09T00:16:37.127Z,59.43
2024-05-09T00:19:43.596Z,59.49
2024-05-09T00:22:48.070Z,58.66
2024-05-09T00:25:52.340Z,58.80
2024-05-09T00:28:56.796Z,58.38
2024-05-09T00:32:00.971Z,58.97
2024-05-09T00:35:05.916Z,58.43
2024-05-09T00:38:10.759Z,58.36
2024-05-09T00:41:17.139Z,58.48
2024-05-09T00:44:23.391Z,58.98
2024-05-09T00:47:28.040Z,59.71
2024-05-09T00:50:36.839Z,58.97
2024-05-09T00:53:42.725Z,58.83
2024-05-09T00:56:48.515Z,58.94
2024-05-09T00:59:53.799Z,58.56
2024-05-09T01:02:57.871Z,58.89
2024-05-09T01:06:02.161Z,59.34
2024-05-09T01:09:06.678Z,58.77
2024-05-09T01:12:10.862Z,58.80
2024-05-09T01:15:15.245Z,58.28
2024-05-09T01:18:19.608Z,58.46
2024-05-09T01:21:24.464Z,58.19
2024-05-09T01:24:28.690Z,58.52
2024-05-09T01:27:33.129Z,58.81
2024-05-09T01:30:38.230Z,58.68
2024-05-09T01:33:46.315Z,58.84
2024-05-09T01:36:50.742Z,58.47
2024-05-09T01:39:54.938Z,58.11
2024-05-09T01:42:59.306Z,59.01
2024-05-09T01:46:03.708Z,60.13
2024-05-09T01:49:08.339Z,59.60
2024-05-09T01:52:12.662Z,59.51
2024-05-09T01:55:16.781Z,59.26
2024-05-09T01:58:21.150Z,59.61
2024-05-09T02:01:25.459Z,59.81
2024-05-09T02:04:30.695Z,60.01
2024-05-09T02:07:35.087Z,60.45
2024-05-09T02:10:39.501Z,60.22
2024-05-09T02:13:43.784Z,59.87
2024-05-09T02:16:48.542Z,59.73
2024-05-09T02:19:52.577Z,59.73
2024-05-09T02:22:57.545Z,59.95
2024-05-09T02:26:01.728Z,59.14
2024-05-09T02:29:09.048Z,59.44
2024-05-09T02:32:16.437Z,60.09
2024-05-09T02:35:21.040Z,59.89
2024-05-09T02:38:25.661Z,60.87
2024-05-09T02:41:30.105Z,60.77
2024-05-09T02:44:34.138Z,61.27
2024-05-09T02:47:38.841Z,60.21
2024-05-09T02:50:45.911Z,60.00
2024-05-09T02:53:49.958Z,60.66
2024-05-09T02:56:54.191Z,59.73
2024-05-09T02:59:58.764Z,59.19
2024-05-09T03:03:03.390Z,59.29
2024-05-09T03:06:07.579Z,59.17
2024-05-09T03:09:12.107Z,59.23
2024-05-09T03:12:16.458Z,59.23
2024-05-09T03:15:22.543Z,59.40
2024-05-09T03:18:27.188Z,59.15
2024-05-09T03:21:31.597Z,59.73
2024-05-09T03:24:35.830Z,60.13
2024-05-09T03:27:40.087Z,59.32
2024-05-09T03:30:44.535Z,59.47
2024-05-09T03:33:48.729Z,59.21
2024-05-09T03:36:53.112Z,58.96
2024-05-09T03:39:57.280Z,58.48
2024-05-09T03:43:01.525Z,58.51
2024-05-09T03:46:06.007Z,58.65
2024-05-09T03:49:10.296Z,58.28
2024-05-09T03:52:14.357Z,58.46
2024-05-09T03:55:18.897Z,58.36
2024-05-09T03:58:23.110Z,58.36
2024-05-09T04:01:29.979Z,58.44
2024-05-09T04:04:34.349Z,57.99
2024-05-09T04:07:38.384Z,58.74
2024-05-09T04:10:42.548Z,58.82
2024-05-09T04:13:46.767Z,59.05
2024-05-09T04:16:51.244Z,58.36
2024-05-09T04:19:55.745Z,58.49
2024-05-09T04:23:00.380Z,58.52
2024-05-09T04:26:04.910Z,58.46
2024-05-09T04:29:09.567Z,58.19
2024-05-09T04:32:14.166Z,57.95
2024-05-09T04:35:20.449Z,58.59
2024-05-09T04:38:24.637Z,58.71
2024-05-09T04:41:29.153Z,58.56
2024-05-09T04:44:33.762Z,58.94
2024-05-09T04:47:38.136Z,58.44
2024-05-09T04:50:42.846Z,58.44
2024-05-09T04:53:47.445Z,57.94
2024-05-09T04:56:51.559Z,57.62
2024-05-09T04:59:55.786Z,58.08
2024-05-09T05:03:00.285Z,58.09
2024-05-09T05:06:04.898Z,57.72
2024-05-09T05:09:09.366Z,57.64
2024-05-09T05:12:32.414Z,57.81
2024-05-09T05:15:36.435Z,57.54
2024-05-09T05:18:40.889Z,57.16
2024-05-09T05:21:45.081Z,57.56
2024-05-09T05:24:49.685Z,58.25
2024-05-09T05:27:53.825Z,57.66
2024-05-09T05:30:58.120Z,57.79
2024-05-09T05:34:02.171Z,58.21
2024-05-09T05:37:06.369Z,58.36
2024-05-09T05:40:14.639Z,58.60
2024-05-09T05:43:21.820Z,58.30
2024-05-09T05:46:25.981Z,58.12
2024-05-09T05:49:30.426Z,58.91
2024-05-09T05:52:34.529Z,60.06
2024-05-09T05:55:40.242Z,59.32
2024-05-09T05:58:44.864Z,60.35
2024-05-09T06:01:50.368Z,59.36
2024-05-09T06:04:55.130Z,61.20
2024-05-09T06:07:59.597Z,60.30
2024-05-09T06:11:04.462Z,60.59
2024-05-09T06:14:09.208Z,62.27
2024-05-09T06:17:13.576Z,62.38
2024-05-09T06:20:23.913Z,62.67
2024-05-09T06:23:36.121Z,60.31
2024-05-09T06:26:46.597Z,60.04
2024-05-09T06:29:51.352Z,59.42
2024-05-09T06:32:55.915Z,59.28
2024-05-09T06:36:00.204Z,60.60
2024-05-09T06:39:04.749Z,59.56
2024-05-09T06:42:09.219Z,59.95
2024-05-09T06:45:15.703Z,60.64
2024-05-09T06:48:21.477Z,58.04
2024-05-09T06:51:26.549Z,57.79
2024-05-09T06:54:31.189Z,61.70
2024-05-09T06:57:36.664Z,63.27
2024-05-09T07:00:42.222Z,61.25
2024-05-09T07:03:47.188Z,61.97
2024-05-09T07:06:51.317Z,59.47
2024-05-09T07:09:55.528Z,63.11
2024-05-09T07:12:59.697Z,60.48
2024-05-09T07:16:04.229Z,57.57
2024-05-09T07:19:09.391Z,58.85
2024-05-09T07:22:14.139Z,57.71
2024-05-09T07:25:18.396Z,55.60
2024-05-09T07:28:22.561Z,57.06
2024-05-09T07:31:30.421Z,55.15
2024-05-09T07:34:35.417Z,53.61
2024-05-09T07:37:40.944Z,51.54
2024-05-09T07:40:46.931Z,51.87
2024-05-09T07:43:51.067Z,56.38
2024-05-09T07:48:13.993Z,52.38
2024-05-09T07:53:39.869Z,50.29
2024-05-09T07:56:48.943Z,49.71
2024-05-09T07:59:53.451Z,47.95
2024-05-09T08:02:57.720Z,47.40
2024-05-09T08:06:02.377Z,50.89
2024-05-09T08:09:10.996Z,48.31
2024-05-09T08:12:18.292Z,46.88
2024-05-09T08:15:22.747Z,45.91
2024-05-09T08:18:26.929Z,44.18
2024-05-09T08:21:31.553Z,43.09
2024-05-09T08:24:38.829Z,43.24
2024-05-09T08:27:43.307Z,42.25
2024-05-09T08:30:47.987Z,41.67
2024-05-09T08:33:52.595Z,39.47
2024-05-09T08:36:59.675Z,38.60
2024-05-09T08:40:11.044Z,37.51
2024-05-09T08:43:20.177Z,36.66
2024-05-09T08:46:26.736Z,36.99
2024-05-09T08:49:31.374Z,34.74
2024-05-09T08:52:35.890Z,33.59
2024-05-09T08:55:44.194Z,32.20
2024-05-09T08:58:55.987Z,31.65
2024-05-09T09:02:00.182Z,32.01
2024-05-09T09:05:11.159Z,31.08
2024-05-09T09:08:16.049Z,29.98
2024-05-09T09:11:20.973Z,33.26
2024-05-09T09:14:25.366Z,29.93
2024-05-09T09:17:29.736Z,28.11
2024-05-09T09:20:36.678Z,23.55
2024-05-09T09:23:41.864Z,18.88
2024-05-09T09:26:46.094Z,15.88
2024-05-09T09:29:50.219Z,13.81
2024-05-09T09:32:55.623Z,11.11
2024-05-09T09:36:00.681Z,12.04
2024-05-09T09:39:05.926Z,10.39
2024-05-09T09:42:11.428Z,12.25
2024-05-09T09:45:16.816Z,11.80
2024-05-09T09:48:22.565Z,10.71
2024-05-09T09:51:27.662Z,11.22
2024-05-09T09:54:32.336Z,8.20
2024-05-09T09:57:37.924Z,7.33
2024-05-09T10:00:42.517Z,9.75
2024-05-09T10:03:47.317Z,7.66
2024-05-09T10:06:58.571Z,9.08
2024-05-09T10:10:03.348Z,7.51
2024-05-09T10:13:08.875Z,6.26
2024-05-09T10:16:13.108Z,5.72
2024-05-09T10:19:24.700Z,5.53
2024-05-09T10:22:29.779Z,5.53
2024-05-09T10:25:34.161Z,5.76
2024-05-09T10:28:42.783Z,7.78
2024-05-09T10:31:47.889Z,9.32
2024-05-09T10:35:08.414Z,10.42
2024-05-09T10:38:12.610Z,12.14
2024-05-09T10:41:16.853Z,14.00
2024-05-09T10:44:21.690Z,15.09
2024-05-09T10:47:26.478Z,12.32
2024-05-09T10:50:34.183Z,9.81
2024-05-09T10:53:45.816Z,7.89
2024-05-09T10:56:56.937Z,6.90
2024-05-09T11:00:01.168Z,6.36
2024-05-09T11:03:05.834Z,5.65
2024-05-09T11:06:11.288Z,5.61
2024-05-09T11:09:15.639Z,5.21
2024-05-09T11:12:22.042Z,4.95
2024-05-09T11:15:38.229Z,6.57
2024-05-09T11:18:43.644Z,6.51
2024-05-09T11:21:51.815Z,6.95
2024-05-09T11:24:56.775Z,6.93
2024-05-09T11:28:01.741Z,8.35
2024-05-09T11:31:12.452Z,10.92
2024-05-09T11:34:16.742Z,12.05
2024-05-09T11:37:21.272Z,14.42
2024-05-09T11:40:31.968Z,14.53
2024-05-09T11:43:38.303Z,19.24
2024-05-09T11:46:43.329Z,17.79
2024-05-09T11:49:48.565Z,12.87
2024-05-09T11:52:52.834Z,13.21
2024-05-09T11:55:57.097Z,11.26
2024-05-09T11:59:01.690Z,8.73
2024-05-09T12:02:06.136Z,7.43
2024-05-09T12:05:12.313Z,7.22
2024-05-09T12:08:16.717Z,8.03
2024-05-09T12:11:22.207Z,8.60
2024-05-09T12:14:26.438Z,11.16
2024-05-09T12:17:30.668Z,13.63
2024-05-09T12:20:37.951Z,15.71
2024-05-09T12:23:44.392Z,16.92
2024-05-09T12:26:49.834Z,19.00
2024-05-09T12:29:55.651Z,19.63
2024-05-09T12:33:01.693Z,22.26
2024-05-09T12:36:09.182Z,21.73
2024-05-09T12:39:15.993Z,22.99
2024-05-09T12:42:27.152Z,22.03
2024-05-09T12:45:35.654Z,23.11
2024-05-09T12:48:40.119Z,23.01
2024-05-09T12:51:44.528Z,23.24
2024-05-09T12:54:49.329Z,22.86
2024-05-09T12:57:58.277Z,23.15
2024-05-09T13:01:02.709Z,22.88
2024-05-09T13:04:07.342Z,22.90
2024-05-09T13:07:18.768Z,22.94
2024-05-09T13:10:32.035Z,22.88
2024-05-09T13:13:37.685Z,23.32
2024-05-09T13:16:42.050Z,24.31
2024-05-09T13:19:46.823Z,24.40
2024-05-09T13:22:51.265Z,23.07
2024-05-09T13:25:58.386Z,23.88
2024-05-09T13:29:04.964Z,24.02
2024-05-09T13:32:21.127Z,22.67
2024-05-09T13:35:29.008Z,23.57
2024-05-09T13:38:33.430Z,23.22
2024-05-09T13:41:37.633Z,22.94
2024-05-09T13:44:41.869Z,22.56
2024-05-09T13:47:45.988Z,23.10
2024-05-09T13:50:53.519Z,25.50
2024-05-09T13:53:59.414Z,26.50
2024-05-09T13:57:05.634Z,28.07
2024-05-09T14:00:22.238Z,26.59
2024-05-09T14:03:36.303Z,26.11
2024-05-09T14:06:41.471Z,27.72
2024-05-09T14:09:55.067Z,27.87
2024-05-09T14:13:00.755Z,25.08
2024-05-09T14:16:06.221Z,25.50
2024-05-09T14:19:10.819Z,25.37
2024-05-09T14:22:15.228Z,24.49
2024-05-09T14:25:20.466Z,22.52
2024-05-09T14:28:26.155Z,22.42
2024-05-09T14:31:35.460Z,24.82
2024-05-09T14:34:40.512Z,23.40
2024-05-09T14:37:45.055Z,23.98
2024-05-09T14:40:50.769Z,25.01
2024-05-09T14:43:55.158Z,24.24
2024-05-09T14:47:02.574Z,22.88
2024-05-09T14:50:13.902Z,24.08
2024-05-09T14:53:23.770Z,23.52
2024-05-09T14:56:28.058Z,22.94
2024-05-09T14:59:32.612Z,23.54
2024-05-09T15:02:38.096Z,22.19
2024-05-09T15:05:42.702Z,22.06
2024-05-09T15:08:54.973Z,22.79
2024-05-09T15:11:59.335Z,21.74
2024-05-09T15:15:04.205Z,22.04
2024-05-09T15:18:08.801Z,22.53
2024-05-09T15:21:12.960Z,22.23
2024-05-09T15:24:17.323Z,22.58
2024-05-09T15:27:21.699Z,23.46
2024-05-09T15:33:33.513Z,24.00
2024-05-09T15:36:39.242Z,24.34
2024-05-09T15:39:44.893Z,24.20
2024-05-09T15:42:49.267Z,25.07
2024-05-09T15:45:54.062Z,24.91
2024-05-09T15:48:59.004Z,24.33
2024-05-09T15:52:03.860Z,24.40
2024-05-09T15:55:10.054Z,24.81
2024-05-09T15:58:14.440Z,25.05
2024-05-09T16:01:18.601Z,25.42
2024-05-09T16:04:23.279Z,24.83
2024-05-09T16:07:28.433Z,25.09
2024-05-09T16:10:34.497Z,24.66
2024-05-09T16:13:39.477Z,24.03
2024-05-09T16:16:44.157Z,25.63
2024-05-09T16:19:48.395Z,25.69
2024-05-09T16:22:52.725Z,25.55
2024-05-09T16:25:57.622Z,25.68
2024-05-09T16:29:01.722Z,25.17
2024-05-09T16:32:06.537Z,25.91
2024-05-09T16:35:10.612Z,26.22
2024-05-09T16:38:15.026Z,26.24
2024-05-09T16:41:19.827Z,26.41
2024-05-09T16:44:24.178Z,26.53
2024-05-09T16:47:28.556Z,26.24
2024-05-09T16:50:34.817Z,26.56
2024-05-09T16:53:40.478Z,26.01
2024-05-09T16:56:45.136Z,27.14
2024-05-09T16:59:49.552Z,27.17
2024-05-09T17:02:54.526Z,27.88
2024-05-09T17:06:03.147Z,26.80
2024-05-09T17:09:11.737Z,27.23
2024-05-09T17:12:19.961Z,27.57
2024-05-09T17:15:24.346Z,28.56
2024-05-09T17:18:28.722Z,28.56
2024-05-09T17:21:33.383Z,29.31
2024-05-09T17:24:37.804Z,29.71
2024-05-09T17:27:42.286Z,29.98
2024-05-09T17:30:46.692Z,29.52
2024-05-09T17:33:51.128Z,29.93
2024-05-09T17:36:55.578Z,30.42
2024-05-09T17:40:00.008Z,30.08
2024-05-09T17:43:13.313Z,30.70
2024-05-09T17:46:17.894Z,30.81
2024-05-09T17:49:22.167Z,30.81
2024-05-09T17:52:26.799Z,30.95
2024-05-09T17:55:31.046Z,30.68
2024-05-09T17:58:35.147Z,31.27
2024-05-09T18:01:39.344Z,30.90
2024-05-09T18:04:44.284Z,31.30
2024-05-09T18:07:49.114Z,30.96
2024-05-09T18:10:55.355Z,30.89
2024-05-09T18:14:00.263Z,31.55
2024-05-09T18:17:05.004Z,31.72
2024-05-09T18:20:14.131Z,32.08
2024-05-09T18:23:23.952Z,32.17
2024-05-09T18:26:28.355Z,32.03
2024-05-09T18:29:32.963Z,32.62
2024-05-09T18:32:37.478Z,33.39
2024-05-09T18:35:45.120Z,34.41
2024-05-09T18:38:49.567Z,34.93
2024-05-09T18:41:53.861Z,35.70
2024-05-09T18:44:58.390Z,35.17
2024-05-09T18:48:04.791Z,36.90
2024-05-09T18:51:09.072Z,36.72
2024-05-09T18:54:13.430Z,37.83
2024-05-09T18:57:20.729Z,38.54
2024-05-09T19:00:33.818Z,38.38
2024-05-09T19:03:41.937Z,38.90
2024-05-09T19:06:46.279Z,38.56
2024-05-09T19:09:50.621Z,38.75
2024-05-09T19:12:55.315Z,39.35
2024-05-09T19:15:59.899Z,40.16
2024-05-09T19:19:05.137Z,40.67
2024-05-09T19:22:09.478Z,40.67
2024-05-09T19:25:13.779Z,41.13
2024-05-09T19:28:18.753Z,41.31
2024-05-09T19:31:23.176Z,41.24
2024-05-09T19:34:29.613Z,41.00
2024-05-09T19:37:33.985Z,41.44
2024-05-09T19:40:38.043Z,41.54
2024-05-09T19:43:42.177Z,41.90
2024-05-09T19:46:46.815Z,41.92
2024-05-09T19:49:51.602Z,41.81
2024-05-09T19:52:55.838Z,42.74
2024-05-09T19:55:59.920Z,43.06
2024-05-09T19:59:04.258Z,42.94
2024-05-09T20:02:09.035Z,43.65
2024-05-09T20:05:13.968Z,43.84
2024-05-09T20:08:18.375Z,43.66
2024-05-09T20:11:23.717Z,43.75
2024-05-09T20:14:28.035Z,44.19
2024-05-09T20:17:32.536Z,43.49
2024-05-09T20:20:40.910Z,43.79
2024-05-09T20:23:47.229Z,43.58
2024-05-09T20:26:51.560Z,44.15
2024-05-09T20:29:55.738Z,44.54
2024-05-09T20:33:00.195Z,45.24
2024-05-09T20:36:05.781Z,46.19
2024-05-09T20:39:10.224Z,45.74
2024-05-09T20:42:14.691Z,45.59
2024-05-09T20:45:19.194Z,45.24
2024-05-09T20:48:24.690Z,45.52
2024-05-09T20:51:30.455Z,45.99
2024-05-09T20:54:34.565Z,46.03
2024-05-09T20:57:39.308Z,46.39
2024-05-09T21:00:45.737Z,46.42
2024-05-09T21:03:51.086Z,46.42
2024-05-09T21:06:55.602Z,46.94
2024-05-09T21:10:00.292Z,46.63
2024-05-09T21:13:04.771Z,46.85
2024-05-09T21:16:09.533Z,46.68
2024-05-09T21:19:13.894Z,46.63
2024-05-09T21:22:18.472Z,47.07
2024-05-09T21:25:22.820Z,47.25
2024-05-09T21:28:31.055Z,46.99
2024-05-09T21:31:37.849Z,47.25
2024-05-09T21:34:42.080Z,46.96
2024-05-09T21:37:47.097Z,47.59
2024-05-09T21:40:51.375Z,48.03
2024-05-09T21:43:55.933Z,48.11
2024-05-09T21:47:00.397Z,48.11
2024-05-09T21:50:06.040Z,48.31
2024-05-09T21:53:12.723Z,47.91
2024-05-09T21:56:17.573Z,49.35
2024-05-09T21:59:21.879Z,49.98
2024-05-09T22:02:26.625Z,49.60
2024-05-09T22:05:31.030Z,49.95
2024-05-09T22:08:35.075Z,49.77
2024-05-09T22:11:39.442Z,49.23
2024-05-09T22:14:43.626Z,49.89
2024-05-09T22:17:48.403Z,50.90
2024-05-09T22:20:52.714Z,50.60
2024-05-09T22:23:57.200Z,51.32
2024-05-09T22:27:01.620Z,51.07
2024-05-09T22:30:09.200Z,50.60
2024-05-09T22:33:16.075Z,50.83
2024-05-09T22:36:20.507Z,51.92
2024-05-09T22:39:24.872Z,51.81
2024-05-09T22:42:29.330Z,52.01
2024-05-09T22:45:33.417Z,51.89
2024-05-09T22:48:37.835Z,51.79
2024-05-09T22:51:42.700Z,51.93
2024-05-09T22:54:47.288Z,52.31
2024-05-09T22:57:51.711Z,52.04
2024-05-09T23:00:56.050Z,51.93
2024-05-09T23:04:00.481Z,51.35
2024-05-09T23:07:05.130Z,51.29
2024-05-09T23:10:13.452Z,51.19
2024-05-09T23:13:25.082Z,51.42
2024-05-09T23:16:29.576Z,52.42
2024-05-09T23:19:34.763Z,52.63
2024-05-09T23:22:39.481Z,52.96
2024-05-09T23:25:44.157Z,53.02
2024-05-09T23:28:48.610Z,53.02
2024-05-09T23:31:53.431Z,53.20
2024-05-09T23:34:57.382Z,53.12
2024-05-09T23:38:01.920Z,53.21
2024-05-09T23:41:06.794Z,53.35
2024-05-09T23:44:10.910Z,52.61
2024-05-09T23:47:14.970Z,52.69
2024-05-09T23:50:26.342Z,52.43
2024-05-09T23:53:37.099Z,52.73
2024-05-09T23:56:41.468Z,52.70
2024-05-09T23:59:45.566Z,53.49
